sensor_id;sensor_type;location;lat;lon;timestamp;pressure;altitude;pressure_sealevel;temperature;humidity
61740;BME280;47645;45.288;12.038;2024-01-15T00:04:55;1006.030087919269;;;2.6244140625;100
61740;BME280;47645;45.288;12.038;2024-01-15T00:14:56;1005.9064605731;;;2.6294921875;100
61740;BME280;47645;45.288;12.038;2024-01-15T00:24:56;1005.6679149094302;;;2.8689453125;100
61740;BME280;47645;45.288;12.038;2024-01-15T00:34:57;1005.5990770970975;;;2.81796875;100
61740;BME280;47645;45.288;12.038;2024-01-15T00:44:57;1005.4821097030137;;;2.8587890625;100
61740;BME280;47645;45.288;12.038;2024-01-15T00:54:57;1005.3634184527562;;;2.89453125;100
61740;BME280;47645;45.288;12.038;2024-01-15T01:04:58;1005.0557807105746;;;3.021875;100
61740;BME280;47645;45.288;12.038;2024-01-15T01:14:59;1004.9648849848172;;;3.026953125;100
61740;BME280;47645;45.288;12.038;2024-01-15T01:24:59;1005.1184512319865;;;2.7314453125;100
61740;BME280;47645;45.288;12.038;2024-01-15T01:35:00;1004.9749429797921;;;2.7212890625;100
61740;BME280;47645;45.288;12.038;2024-01-15T01:45:00;1004.8759114109374;;;2.8435546875;100
61740;BME280;47645;45.288;12.038;2024-01-15T01:55:02;1004.6470099202674;;;3.10859375;100
61740;BME280;47645;45.288;12.038;2024-01-15T02:05:02;1004.3093282234461;;;3.0576171875;100
61740;BME280;47645;45.288;12.038;2024-01-15T02:15:01;1004.3688014100106;;;3.1390625;100
61740;BME280;47645;45.288;12.038;2024-01-15T02:25:02;1004.3030652301073;;;2.9607421875;100
61740;BME280;47645;45.288;12.038;2024-01-15T02:35:02;1004.0648854856805;;;2.9658203125;100
61740;BME280;47645;45.288;12.038;2024-01-15T02:45:03;1003.8443234231237;;;3.2615234375;100
61740;BME280;47645;45.288;12.038;2024-01-15T02:55:03;1003.6363361549197;;;3.133984375;100
61740;BME280;47645;45.288;12.038;2024-01-15T03:00:05;1003.485528637047;;;3.1544921875;100
61740;BME280;47645;45.288;12.038;2024-01-15T03:15:05;1003.564428506842;;;3.12890625;100
61740;BME280;47645;45.288;12.038;2024-01-15T03:20:05;1003.5425793859939;;;2.986328125;100
61740;BME280;47645;45.288;12.038;2024-01-15T03:30:05;1003.4369235161356;;;2.889453125;100
61740;BME280;47645;45.288;12.038;2024-01-15T03:40:06;1003.2600432675655;;;3.133984375;100
61740;BME280;47645;45.288;12.038;2024-01-15T03:50:05;1003.072391231869;;;3.0677734375;100
61740;BME280;47645;45.288;12.038;2024-01-15T04:00:07;1002.9557831757792;;;3.25625;100
61740;BME280;47645;45.288;12.038;2024-01-15T04:10:07;1002.7313696575025;;;3.3888671875;100
61740;BME280;47645;45.288;12.038;2024-01-15T04:20:08;1002.8387243578595;;;3.5060546875;100
61740;BME280;47645;45.288;12.038;2024-01-15T04:30:08;1002.723408542194;;;3.434765625;100
61740;BME280;47645;45.288;12.038;2024-01-15T04:40:08;1002.686529410938;;;3.251171875;100
61740;BME280;47645;45.288;12.038;2024-01-15T04:50:08;1002.6738631401081;;;3.3736328125;100
61740;BME280;47645;45.288;12.038;2024-01-15T05:00:09;1002.6455506888445;;;3.2615234375;100
61740;BME280;47645;45.288;12.038;2024-01-15T05:10:09;1002.5121702786207;;;3.4806640625;100
61740;BME280;47645;45.288;12.038;2024-01-15T05:20:10;1002.3215599484997;;;3.444921875;100
61740;BME280;47645;45.288;12.038;2024-01-15T05:30:10;1002.3266779635941;;;3.5009765625;100
61740;BME280;47645;45.288;12.038;2024-01-15T05:40:11;1002.4736145812915;;;3.424609375;100
61740;BME280;47645;45.288;12.038;2024-01-15T05:50:11;1002.371034491257;;;3.45;100
61740;BME280;47645;45.288;12.038;2024-01-15T06:00:12;1002.3268311934801;;;3.4296875;100
61740;BME280;47645;45.288;12.038;2024-01-15T06:10:11;1002.2531824642662;;;3.424609375;100
61740;BME280;47645;45.288;12.038;2024-01-15T06:20:12;1002.2543542947975;;;3.3736328125;100
61740;BME280;47645;45.288;12.038;2024-01-15T06:30:13;1002.0378768360017;;;3.2001953125;100
61740;BME280;47645;45.288;12.038;2024-01-15T06:40:13;1002.0580723623818;;;3.215625;100
61740;BME280;47645;45.288;12.038;2024-01-15T06:50:13;1001.884297688598;;;3.0880859375;100
61740;BME280;47645;45.288;12.038;2024-01-15T07:00:14;1001.9050860073268;;;3.24609375;100
61740;BME280;47645;45.288;12.038;2024-01-15T07:10:14;1002.0155723145109;;;3.251171875;100
61740;BME280;47645;45.288;12.038;2024-01-15T07:20:14;1002.0777474830883;;;3.3990234375;100
61740;BME280;47645;45.288;12.038;2024-01-15T07:30:15;1002.4006035477166;;;3.358203125;100
61740;BME280;47645;45.288;12.038;2024-01-15T07:40:15;1002.2388015533134;;;3.144140625;100
61740;BME280;47645;45.288;12.038;2024-01-15T07:50:15;1002.2153138208768;;;3.434765625;100
61740;BME280;47645;45.288;12.038;2024-01-15T08:00:16;1002.126895342377;;;3.7302734375;100
61740;BME280;47645;45.288;12.038;2024-01-15T08:10:16;1002.2993798650452;;;4.0666015625;100
61740;BME280;47645;45.288;12.038;2024-01-15T08:20:17;1002.4685005009854;;;4.1787109375;100
61740;BME280;47645;45.288;12.038;2024-01-15T08:30:19;1002.5528760952853;;;4.0767578125;100
61740;BME280;47645;45.288;12.038;2024-01-15T08:40:18;1002.6698278516332;;;4.2603515625;100
61740;BME280;47645;45.288;12.038;2024-01-15T08:50:18;1002.7074561619568;;;4.438671875;100
61740;BME280;47645;45.288;12.038;2024-01-15T09:00:18;1002.5156324251818;;;4.66796875;100
61740;BME280;47645;45.288;12.038;2024-01-15T09:10:19;1002.5474752013317;;;4.8158203125;100
61740;BME280;47645;45.288;12.038;2024-01-15T09:20:19;1002.4122057298168;;;4.9890625;100
61740;BME280;47645;45.288;12.038;2024-01-15T09:30:19;1002.2391514270915;;;5.28984375;100
61740;BME280;47645;45.288;12.038;2024-01-15T09:40:21;1002.21849245537;;;5.40703125;100
61740;BME280;47645;45.288;12.038;2024-01-15T09:50:21;1002.0828456447811;;;5.7791015625;100
61740;BME280;47645;45.288;12.038;2024-01-15T10:00:22;1002.1129758535617;;;6.3140625;100
61740;BME280;47645;45.288;12.038;2024-01-15T10:10:22;1001.9462109273288;;;6.6453125;100
61740;BME280;47645;45.288;12.038;2024-01-15T10:20:23;1001.8881061419972;;;6.75234375;100
61740;BME280;47645;45.288;12.038;2024-01-15T10:30:24;1001.7250817641633;;;6.6810546875;100
61740;BME280;47645;45.288;12.038;2024-01-15T10:40:23;1001.6245791795488;;;6.7931640625;100
61740;BME280;47645;45.288;12.038;2024-01-15T10:50:23;1001.4348012258893;;;7.0072265625;100
61740;BME280;47645;45.288;12.038;2024-01-15T11:00:26;1001.1284188579593;;;7.0939453125;100
61740;BME280;47645;45.288;12.038;2024-01-15T11:10:41;1001.1888622667212;;;7.078515625;100
61740;BME280;47645;45.288;12.038;2024-01-15T11:20:24;1001.2197584026982;;;7.1294921875;100
61740;BME280;47645;45.288;12.038;2024-01-15T11:30:26;1000.8803632803082;;;7.3283203125;100
61740;BME280;47645;45.288;12.038;2024-01-15T11:40:41;1000.7789677844162;;;7.292578125;100
61740;BME280;47645;45.288;12.038;2024-01-15T11:50:29;1000.6977191312545;;;7.4099609375;97.8770008790243
61740;BME280;47645;45.288;12.038;2024-01-15T12:00:26;1000.5499962201719;;;7.5271484375;97.9728631535799
61740;BME280;47645;45.288;12.038;2024-01-15T12:10:27;1000.5338448607503;;;7.476171875;96.69710099745178
61740;BME280;47645;45.288;12.038;2024-01-15T12:20:28;1000.4713737442935;;;7.5423828125;96.8610226472877
61740;BME280;47645;45.288;12.038;2024-01-15T12:30:30;1000.0524026834071;;;7.47109375;96.45665535731392
61740;BME280;47645;45.288;12.038;2024-01-15T12:40:29;999.7374294983852;;;7.6341796875;97.01538839166302
61740;BME280;47645;45.288;12.038;2024-01-15T12:50:30;999.4614289351018;;;7.7361328125;95.89473506995557
61740;BME280;47645;45.288;12.038;2024-01-15T13:00:30;999.3061737213003;;;7.6443359375;98.3871291337926
61740;BME280;47645;45.288;12.038;2024-01-15T13:10:31;999.0383415302445;;;7.787109375;97.44143494524897
61740;BME280;47645;45.288;12.038;2024-01-15T13:20:31;999.1543437083865;;;8.05703125;95.9200101032682
61740;BME280;47645;45.288;12.038;2024-01-15T13:30:32;999.0810874620825;;;8.3578125;95.45560055848772
61740;BME280;47645;45.288;12.038;2024-01-15T13:40:32;998.99968553201;;;8.4291015625;94.15699664961716
61740;BME280;47645;45.288;12.038;2024-01-15T13:50:32;998.9534686201514;;;8.56171875;94.56527433389144
61740;BME280;47645;45.288;12.038;2024-01-15T14:00:34;998.8116930231357;;;8.4240234375;95.75147876396238
61740;BME280;47645;45.288;12.038;2024-01-15T14:10:34;998.6695950641553;;;8.36796875;96.2480286977531
61740;BME280;47645;45.288;12.038;2024-01-15T14:20:34;998.5922593240846;;;8.0826171875;97.58093872716786
61740;BME280;47645;45.288;12.038;2024-01-15T14:30:35;998.816564638234;;;7.904296875;99.5043089574874
61740;BME280;47645;45.288;12.038;2024-01-15T14:40:36;998.8723540700336;;;7.9296875;100
61740;BME280;47645;45.288;12.038;2024-01-15T14:50:36;998.94500527752;;;7.6953125;100
61740;BME280;47645;45.288;12.038;2024-01-15T15:00:37;998.7744885175179;;;7.710546875;100
61740;BME280;47645;45.288;12.038;2024-01-15T15:10:37;998.8321002744154;;;7.5626953125;100
61740;BME280;47645;45.288;12.038;2024-01-15T15:20:38;998.6497806653874;;;7.4201171875;100
61740;BME280;47645;45.288;12.038;2024-01-15T15:30:38;998.3309922377948;;;7.1958984375;100
61740;BME280;47645;45.288;12.038;2024-01-15T15:40:38;998.3327617322514;;;6.9001953125;100
61740;BME280;47645;45.288;12.038;2024-01-15T15:50:39;998.6493011328436;;;6.625;100
61740;BME280;47645;45.288;12.038;2024-01-15T16:00:40;998.9447531845134;;;6.426171875;100
61740;BME280;47645;45.288;12.038;2024-01-15T16:10:40;999.1582944663277;;;6.1408203125;100
61740;BME280;47645;45.288;12.038;2024-01-15T16:20:42;999.0398895543568;;;5.3408203125;100
61740;BME280;47645;45.288;12.038;2024-01-15T16:30:41;999.3183368675765;;;5.4375;100
61740;BME280;47645;45.288;12.038;2024-01-15T16:40:42;999.1909115531049;;;5.4580078125;100
61740;BME280;47645;45.288;12.038;2024-01-15T16:50:42;999.3094239416905;;;5.3458984375;100
61740;BME280;47645;45.288;12.038;2024-01-15T17:00:43;999.5131858368742;;;4.74453125;100
61740;BME280;47645;45.288;12.038;2024-01-15T17:10:43;999.5136611649376;;;4.8310546875;100
61740;BME280;47645;45.288;12.038;2024-01-15T17:20:46;999.6348039761845;;;4.775;100
61740;BME280;47645;45.288;12.038;2024-01-15T17:30:46;999.8126261635156;;;4.0361328125;100
61740;BME280;47645;45.288;12.038;2024-01-15T17:40:45;999.7373122328968;;;4.2705078125;100
61740;BME280;47645;45.288;12.038;2024-01-15T17:50:45;999.8361855028248;;;4.02578125;100
61740;BME280;47645;45.288;12.038;2024-01-15T18:00:45;999.9875681774943;;;3.9953125;100
61740;BME280;47645;45.288;12.038;2024-01-15T18:10:46;1000.1396471232023;;;3.679296875;100
61740;BME280;47645;45.288;12.038;2024-01-15T18:20:47;1000.3509747400386;;;3.5314453125;100
61740;BME280;47645;45.288;12.038;2024-01-15T18:30:47;1000.4795684204059;;;3.0423828125;100
61740;BME280;47645;45.288;12.038;2024-01-15T18:40:48;1000.6427899175495;;;3.0474609375;100
61740;BME280;47645;45.288;12.038;2024-01-15T18:50:48;1000.6276601783544;;;3.20546875;100
61740;BME280;47645;45.288;12.038;2024-01-15T19:00:48;1000.6796519030715;;;2.996484375;100
61740;BME280;47645;45.288;12.038;2024-01-15T19:10:49;1000.910640453791;;;3.215625;100
61740;BME280;47645;45.288;12.038;2024-01-15T19:20:49;1001.00820158688;;;3.36328125;100
61740;BME280;47645;45.288;12.038;2024-01-15T19:30:51;1001.1346099180757;;;3.006640625;100
61740;BME280;47645;45.288;12.038;2024-01-15T19:40:50;1001.1785131011837;;;3.11875;100
61740;BME280;47645;45.288;12.038;2024-01-15T19:50:51;1001.341362344827;;;3.123828125;100
61740;BME280;47645;45.288;12.038;2024-01-15T20:00:51;1001.4494178267933;;;3.03203125;100
61740;BME280;47645;45.288;12.038;2024-01-15T20:10:53;1001.4822547787568;;;2.89453125;100
61740;BME280;47645;45.288;12.038;2024-01-15T20:20:52;1001.5974191958766;;;2.66015625;100
61740;BME280;47645;45.288;12.038;2024-01-15T20:30:52;1001.7360604066313;;;2.705859375;100
61740;BME280;47645;45.288;12.038;2024-01-15T20:40:52;1001.7398473012647;;;2.2830078125;100
61740;BME280;47645;45.288;12.038;2024-01-15T20:50:53;1001.7283679676731;;;2.2830078125;100
61740;BME280;47645;45.288;12.038;2024-01-15T21:00:54;1001.9856829901856;;;2.130078125;100
61740;BME280;47645;45.288;12.038;2024-01-15T21:10:54;1002.0316735582321;;;2.0486328125;100
61740;BME280;47645;45.288;12.038;2024-01-15T21:20:55;1002.1264641242965;;;1.905859375;100
61740;BME280;47645;45.288;12.038;2024-01-15T21:30:55;1002.220871470611;;;2.1861328125;100
61740;BME280;47645;45.288;12.038;2024-01-15T21:40:55;1002.364220697579;;;2.0537109375;100
61740;BME280;47645;45.288;12.038;2024-01-15T21:50:55;1002.4208345313833;;;1.7376953125;100
61740;BME280;47645;45.288;12.038;2024-01-15T22:00:56;1002.6571401268008;;;2.0587890625;100
61740;BME280;47645;45.288;12.038;2024-01-15T22:10:56;1002.799904748224;;;2.344140625;100
61740;BME280;47645;45.288;12.038;2024-01-15T22:21:00;1002.8884110174242;;;2.1810546875;100
61740;BME280;47645;45.288;12.038;2024-01-15T22:30:57;1002.9837760538846;;;2.1962890625;100
61740;BME280;47645;45.288;12.038;2024-01-15T22:40:58;1003.1271696663836;;;1.9822265625;100
61740;BME280;47645;45.288;12.038;2024-01-15T22:50:58;1003.2109854902959;;;1.9568359375;100
61740;BME280;47645;45.288;12.038;2024-01-15T23:00:59;1003.3092314369585;;;1.99765625;100
61740;BME280;47645;45.288;12.038;2024-01-15T23:10:58;1003.3491932271214;;;1.8751953125;100
61740;BME280;47645;45.288;12.038;2024-01-15T23:20:59;1003.3554898106671;;;1.8548828125;100
61740;BME280;47645;45.288;12.038;2024-01-15T23:31:00;1003.6415759837523;;;1.808984375;100
61740;BME280;47645;45.288;12.038;2024-01-15T23:40:59;1003.705441163365;;;1.671484375;100
61740;BME280;47645;45.288;12.038;2024-01-15T23:51:04;1003.7343045685592;;;1.6408203125;100
